Аэропорт: Гомель. Гомель

ICAO: UMGG

METAR:
2019/05/26 14:00
UMGG 261400Z 29008G11MPS CAVOK 21/09 Q1009 R28/CLRD// NOSIG
METAR:
2019/05/26 12:21
TAF UMGG 261100Z 2612/2712 28005G10MPS 9999 BKN020 
      TEMPO 2612/2618 29007G12MPS 
      BECMG 2618/2620 25005MPS 6000 
      TEMPO 2620/2704 1200 BR BKN005 
     FM270600 23007MPS 9999 BKN025 
      TEMPO 2706/2712 22007G12MPS